sensor_id;sensor_type;location;lat;lon;timestamp;P1;durP1;ratioP1;P2;durP2;ratioP2
13753;SDS011;6948;51.216;6.778;2023-08-08T00:02:01;3.17;;;1.80;;
13753;SDS011;6948;51.216;6.778;2023-08-08T00:04:27;3.53;;;1.67;;
13753;SDS011;6948;51.216;6.778;2023-08-08T00:06:53;4.13;;;1.87;;
13753;SDS011;6948;51.216;6.778;2023-08-08T00:09:19;3.80;;;1.90;;
13753;SDS011;6948;51.216;6.778;2023-08-08T00:11:45;5.80;;;1.93;;
13753;SDS011;6948;51.216;6.778;2023-08-08T00:14:11;5.53;;;2.00;;
13753;SDS011;6948;51.216;6.778;2023-08-08T00:16:37;7.37;;;2.00;;
13753;SDS011;6948;51.216;6.778;2023-08-08T00:19:03;5.23;;;2.20;;
13753;SDS011;6948;51.216;6.778;2023-08-08T00:21:29;3.00;;;2.00;;
13753;SDS011;6948;51.216;6.778;2023-08-08T00:23:55;5.50;;;2.13;;
13753;SDS011;6948;51.216;6.778;2023-08-08T00:26:22;3.50;;;2.00;;
13753;SDS011;6948;51.216;6.778;2023-08-08T00:28:48;3.80;;;2.00;;
13753;SDS011;6948;51.216;6.778;2023-08-08T00:31:14;4.10;;;1.90;;
13753;SDS011;6948;51.216;6.778;2023-08-08T00:33:42;3.17;;;2.03;;
13753;SDS011;6948;51.216;6.778;2023-08-08T00:36:08;6.10;;;1.97;;
13753;SDS011;6948;51.216;6.778;2023-08-08T00:38:34;3.87;;;2.07;;
13753;SDS011;6948;51.216;6.778;2023-08-08T00:41:01;4.37;;;2.10;;
13753;SDS011;6948;51.216;6.778;2023-08-08T00:43:27;4.10;;;2.50;;
13753;SDS011;6948;51.216;6.778;2023-08-08T00:45:53;4.07;;;2.10;;
13753;SDS011;6948;51.216;6.778;2023-08-08T00:48:19;4.50;;;2.00;;
13753;SDS011;6948;51.216;6.778;2023-08-08T00:50:45;5.90;;;2.23;;
13753;SDS011;6948;51.216;6.778;2023-08-08T00:53:11;3.07;;;2.17;;
13753;SDS011;6948;51.216;6.778;2023-08-08T00:55:37;4.57;;;2.30;;
13753;SDS011;6948;51.216;6.778;2023-08-08T00:58:04;4.10;;;2.13;;
13753;SDS011;6948;51.216;6.778;2023-08-08T01:00:30;3.73;;;2.20;;
13753;SDS011;6948;51.216;6.778;2023-08-08T01:02:56;2.97;;;2.17;;
13753;SDS011;6948;51.216;6.778;2023-08-08T01:05:22;4.17;;;2.13;;
13753;SDS011;6948;51.216;6.778;2023-08-08T01:08:04;4.70;;;2.30;;
13753;SDS011;6948;51.216;6.778;2023-08-08T01:10:33;2.97;;;2.00;;
13753;SDS011;6948;51.216;6.778;2023-08-08T01:13:02;4.17;;;2.47;;
13753;SDS011;6948;51.216;6.778;2023-08-08T01:15:30;3.43;;;2.30;;
13753;SDS011;6948;51.216;6.778;2023-08-08T01:18:03;3.90;;;2.30;;
13753;SDS011;6948;51.216;6.778;2023-08-08T01:20:29;3.50;;;2.53;;
13753;SDS011;6948;51.216;6.778;2023-08-08T01:23:03;3.43;;;2.50;;
13753;SDS011;6948;51.216;6.778;2023-08-08T01:25:32;4.63;;;2.50;;
13753;SDS011;6948;51.216;6.778;2023-08-08T01:27:58;2.67;;;2.47;;
13753;SDS011;6948;51.216;6.778;2023-08-08T01:30:24;4.43;;;2.60;;
13753;SDS011;6948;51.216;6.778;2023-08-08T01:32:50;3.70;;;2.30;;
13753;SDS011;6948;51.216;6.778;2023-08-08T01:35:16;4.07;;;2.50;;
13753;SDS011;6948;51.216;6.778;2023-08-08T01:37:44;7.23;;;2.83;;
13753;SDS011;6948;51.216;6.778;2023-08-08T01:40:13;4.77;;;2.53;;
13753;SDS011;6948;51.216;6.778;2023-08-08T01:42:41;5.00;;;2.47;;
13753;SDS011;6948;51.216;6.778;2023-08-08T01:45:08;4.63;;;2.60;;
13753;SDS011;6948;51.216;6.778;2023-08-08T01:47:35;4.93;;;2.50;;
13753;SDS011;6948;51.216;6.778;2023-08-08T01:50:01;4.57;;;2.50;;
13753;SDS011;6948;51.216;6.778;2023-08-08T01:52:27;4.10;;;2.60;;
13753;SDS011;6948;51.216;6.778;2023-08-08T01:54:54;6.20;;;2.77;;
13753;SDS011;6948;51.216;6.778;2023-08-08T01:57:20;5.70;;;3.27;;
13753;SDS011;6948;51.216;6.778;2023-08-08T01:59:47;6.87;;;2.67;;
13753;SDS011;6948;51.216;6.778;2023-08-08T02:02:15;5.47;;;2.50;;
13753;SDS011;6948;51.216;6.778;2023-08-08T02:04:42;4.47;;;2.50;;
13753;SDS011;6948;51.216;6.778;2023-08-08T02:07:08;5.10;;;2.70;;
13753;SDS011;6948;51.216;6.778;2023-08-08T02:09:34;5.37;;;2.73;;
13753;SDS011;6948;51.216;6.778;2023-08-08T02:12:00;4.33;;;2.70;;
13753;SDS011;6948;51.216;6.778;2023-08-08T02:14:26;6.00;;;2.60;;
13753;SDS011;6948;51.216;6.778;2023-08-08T02:16:53;4.23;;;2.37;;
13753;SDS011;6948;51.216;6.778;2023-08-08T02:19:19;6.57;;;3.03;;
13753;SDS011;6948;51.216;6.778;2023-08-08T02:21:45;4.93;;;2.40;;
13753;SDS011;6948;51.216;6.778;2023-08-08T02:24:11;6.67;;;2.33;;
13753;SDS011;6948;51.216;6.778;2023-08-08T02:26:37;8.10;;;2.80;;
13753;SDS011;6948;51.216;6.778;2023-08-08T02:29:03;4.70;;;2.53;;
13753;SDS011;6948;51.216;6.778;2023-08-08T02:31:29;4.13;;;2.47;;
13753;SDS011;6948;51.216;6.778;2023-08-08T02:33:55;7.40;;;2.37;;
13753;SDS011;6948;51.216;6.778;2023-08-08T02:36:21;3.57;;;2.17;;
13753;SDS011;6948;51.216;6.778;2023-08-08T02:38:47;5.70;;;3.00;;
13753;SDS011;6948;51.216;6.778;2023-08-08T02:41:14;5.03;;;2.40;;
13753;SDS011;6948;51.216;6.778;2023-08-08T02:43:40;5.83;;;2.60;;
13753;SDS011;6948;51.216;6.778;2023-08-08T02:46:06;3.63;;;2.37;;
13753;SDS011;6948;51.216;6.778;2023-08-08T02:48:32;3.43;;;2.47;;
13753;SDS011;6948;51.216;6.778;2023-08-08T02:50:59;3.80;;;2.20;;
13753;SDS011;6948;51.216;6.778;2023-08-08T02:53:25;5.53;;;2.50;;
13753;SDS011;6948;51.216;6.778;2023-08-08T02:55:51;4.00;;;2.30;;
13753;SDS011;6948;51.216;6.778;2023-08-08T02:58:17;4.43;;;2.53;;
13753;SDS011;6948;51.216;6.778;2023-08-08T03:00:43;5.17;;;2.37;;
13753;SDS011;6948;51.216;6.778;2023-08-08T03:03:09;5.53;;;2.30;;
13753;SDS011;6948;51.216;6.778;2023-08-08T03:05:35;6.20;;;2.43;;
13753;SDS011;6948;51.216;6.778;2023-08-08T03:08:01;7.50;;;2.10;;
13753;SDS011;6948;51.216;6.778;2023-08-08T03:10:27;6.70;;;2.53;;
13753;SDS011;6948;51.216;6.778;2023-08-08T03:12:53;6.37;;;2.60;;
13753;SDS011;6948;51.216;6.778;2023-08-08T03:15:19;4.17;;;2.50;;
13753;SDS011;6948;51.216;6.778;2023-08-08T03:17:45;5.30;;;2.70;;
13753;SDS011;6948;51.216;6.778;2023-08-08T03:20:11;4.80;;;2.20;;
13753;SDS011;6948;51.216;6.778;2023-08-08T03:22:37;6.73;;;2.30;;
13753;SDS011;6948;51.216;6.778;2023-08-08T03:25:04;6.30;;;2.57;;
13753;SDS011;6948;51.216;6.778;2023-08-08T03:27:30;6.50;;;2.40;;
13753;SDS011;6948;51.216;6.778;2023-08-08T03:29:56;5.10;;;2.20;;
13753;SDS011;6948;51.216;6.778;2023-08-08T03:32:22;3.83;;;2.57;;
13753;SDS011;6948;51.216;6.778;2023-08-08T03:34:48;9.03;;;2.73;;
13753;SDS011;6948;51.216;6.778;2023-08-08T03:37:14;4.67;;;2.23;;
13753;SDS011;6948;51.216;6.778;2023-08-08T03:39:40;6.57;;;2.80;;
13753;SDS011;6948;51.216;6.778;2023-08-08T03:42:07;5.80;;;2.60;;
13753;SDS011;6948;51.216;6.778;2023-08-08T03:44:33;5.80;;;2.60;;
13753;SDS011;6948;51.216;6.778;2023-08-08T03:46:59;6.13;;;2.80;;
13753;SDS011;6948;51.216;6.778;2023-08-08T03:49:25;6.13;;;2.60;;
13753;SDS011;6948;51.216;6.778;2023-08-08T03:51:51;6.80;;;2.77;;
13753;SDS011;6948;51.216;6.778;2023-08-08T03:54:17;5.70;;;2.40;;
13753;SDS011;6948;51.216;6.778;2023-08-08T03:56:43;8.30;;;2.83;;
13753;SDS011;6948;51.216;6.778;2023-08-08T03:59:09;5.73;;;2.90;;
13753;SDS011;6948;51.216;6.778;2023-08-08T04:01:36;6.43;;;3.10;;
13753;SDS011;6948;51.216;6.778;2023-08-08T04:04:03;5.17;;;2.53;;
13753;SDS011;6948;51.216;6.778;2023-08-08T04:06:30;6.33;;;3.10;;
13753;SDS011;6948;51.216;6.778;2023-08-08T04:08:56;10.10;;;3.10;;
13753;SDS011;6948;51.216;6.778;2023-08-08T04:11:22;8.60;;;3.33;;
13753;SDS011;6948;51.216;6.778;2023-08-08T04:13:48;7.53;;;3.30;;
13753;SDS011;6948;51.216;6.778;2023-08-08T04:16:14;10.27;;;3.27;;
13753;SDS011;6948;51.216;6.778;2023-08-08T04:18:40;8.67;;;3.00;;
13753;SDS011;6948;51.216;6.778;2023-08-08T04:21:06;5.97;;;2.87;;
13753;SDS011;6948;51.216;6.778;2023-08-08T04:23:32;8.93;;;3.40;;
13753;SDS011;6948;51.216;6.778;2023-08-08T04:25:58;6.03;;;3.00;;
13753;SDS011;6948;51.216;6.778;2023-08-08T04:28:24;6.33;;;3.20;;
13753;SDS011;6948;51.216;6.778;2023-08-08T04:30:51;10.20;;;3.00;;
13753;SDS011;6948;51.216;6.778;2023-08-08T04:33:17;8.70;;;3.10;;
13753;SDS011;6948;51.216;6.778;2023-08-08T04:35:43;8.27;;;3.10;;
13753;SDS011;6948;51.216;6.778;2023-08-08T04:38:09;10.23;;;3.53;;
13753;SDS011;6948;51.216;6.778;2023-08-08T04:40:35;8.93;;;3.10;;
13753;SDS011;6948;51.216;6.778;2023-08-08T04:43:01;9.27;;;3.70;;
13753;SDS011;6948;51.216;6.778;2023-08-08T04:45:27;8.20;;;3.47;;
13753;SDS011;6948;51.216;6.778;2023-08-08T04:47:54;9.30;;;3.53;;
13753;SDS011;6948;51.216;6.778;2023-08-08T04:50:20;9.37;;;3.70;;
13753;SDS011;6948;51.216;6.778;2023-08-08T04:52:46;11.33;;;3.30;;
13753;SDS011;6948;51.216;6.778;2023-08-08T04:55:12;8.13;;;3.63;;
13753;SDS011;6948;51.216;6.778;2023-08-08T04:57:38;8.27;;;3.40;;
13753;SDS011;6948;51.216;6.778;2023-08-08T05:00:05;12.70;;;3.67;;
13753;SDS011;6948;51.216;6.778;2023-08-08T05:02:33;13.57;;;3.90;;
13753;SDS011;6948;51.216;6.778;2023-08-08T05:04:59;8.60;;;3.90;;
13753;SDS011;6948;51.216;6.778;2023-08-08T05:07:26;8.83;;;4.10;;
13753;SDS011;6948;51.216;6.778;2023-08-08T05:09:52;7.67;;;3.23;;
13753;SDS011;6948;51.216;6.778;2023-08-08T05:12:18;7.90;;;3.30;;
13753;SDS011;6948;51.216;6.778;2023-08-08T05:14:44;9.77;;;3.87;;
13753;SDS011;6948;51.216;6.778;2023-08-08T05:17:10;7.37;;;3.60;;
13753;SDS011;6948;51.216;6.778;2023-08-08T05:19:36;11.10;;;4.00;;
13753;SDS011;6948;51.216;6.778;2023-08-08T05:22:02;7.37;;;3.83;;
13753;SDS011;6948;51.216;6.778;2023-08-08T05:24:29;13.17;;;3.60;;
13753;SDS011;6948;51.216;6.778;2023-08-08T05:26:55;10.00;;;3.70;;
13753;SDS011;6948;51.216;6.778;2023-08-08T05:29:21;11.80;;;3.67;;
13753;SDS011;6948;51.216;6.778;2023-08-08T05:31:47;10.63;;;4.13;;
13753;SDS011;6948;51.216;6.778;2023-08-08T05:34:14;8.27;;;4.10;;
13753;SDS011;6948;51.216;6.778;2023-08-08T05:36:40;9.17;;;3.90;;
13753;SDS011;6948;51.216;6.778;2023-08-08T05:39:05;20.77;;;6.10;;
13753;SDS011;6948;51.216;6.778;2023-08-08T05:41:32;15.27;;;4.70;;
13753;SDS011;6948;51.216;6.778;2023-08-08T05:43:58;12.90;;;4.53;;
13753;SDS011;6948;51.216;6.778;2023-08-08T05:46:24;11.70;;;4.33;;
13753;SDS011;6948;51.216;6.778;2023-08-08T05:48:50;13.33;;;4.83;;
13753;SDS011;6948;51.216;6.778;2023-08-08T05:51:16;14.20;;;5.03;;
13753;SDS011;6948;51.216;6.778;2023-08-08T05:53:42;16.50;;;5.07;;
13753;SDS011;6948;51.216;6.778;2023-08-08T05:56:09;8.20;;;4.20;;
13753;SDS011;6948;51.216;6.778;2023-08-08T05:58:35;9.23;;;4.70;;
13753;SDS011;6948;51.216;6.778;2023-08-08T06:01:02;16.37;;;5.37;;
13753;SDS011;6948;51.216;6.778;2023-08-08T06:03:31;13.60;;;6.00;;
13753;SDS011;6948;51.216;6.778;2023-08-08T06:05:57;15.30;;;6.20;;
13753;SDS011;6948;51.216;6.778;2023-08-08T06:08:24;18.07;;;7.40;;
13753;SDS011;6948;51.216;6.778;2023-08-08T06:10:50;18.00;;;7.57;;
13753;SDS011;6948;51.216;6.778;2023-08-08T06:13:16;16.37;;;7.70;;
13753;SDS011;6948;51.216;6.778;2023-08-08T06:15:42;13.53;;;6.17;;
13753;SDS011;6948;51.216;6.778;2023-08-08T06:18:08;18.20;;;6.20;;
13753;SDS011;6948;51.216;6.778;2023-08-08T06:20:34;14.57;;;5.37;;
13753;SDS011;6948;51.216;6.778;2023-08-08T06:23:00;14.57;;;6.23;;
13753;SDS011;6948;51.216;6.778;2023-08-08T06:25:26;15.70;;;6.17;;
13753;SDS011;6948;51.216;6.778;2023-08-08T06:27:53;18.63;;;6.43;;
13753;SDS011;6948;51.216;6.778;2023-08-08T06:30:19;11.13;;;4.93;;
13753;SDS011;6948;51.216;6.778;2023-08-08T06:32:45;12.37;;;4.90;;
13753;SDS011;6948;51.216;6.778;2023-08-08T06:35:11;30.83;;;17.60;;
13753;SDS011;6948;51.216;6.778;2023-08-08T06:37:37;22.03;;;9.60;;
13753;SDS011;6948;51.216;6.778;2023-08-08T06:40:03;17.43;;;5.87;;
13753;SDS011;6948;51.216;6.778;2023-08-08T06:42:32;14.67;;;5.43;;
13753;SDS011;6948;51.216;6.778;2023-08-08T06:44:58;10.00;;;4.57;;
13753;SDS011;6948;51.216;6.778;2023-08-08T06:47:24;11.50;;;4.47;;
13753;SDS011;6948;51.216;6.778;2023-08-08T06:49:50;11.60;;;4.97;;
13753;SDS011;6948;51.216;6.778;2023-08-08T06:52:16;15.17;;;4.43;;
13753;SDS011;6948;51.216;6.778;2023-08-08T06:54:42;14.50;;;4.10;;
13753;SDS011;6948;51.216;6.778;2023-08-08T06:57:08;10.23;;;4.03;;
13753;SDS011;6948;51.216;6.778;2023-08-08T06:59:34;10.07;;;3.80;;
13753;SDS011;6948;51.216;6.778;2023-08-08T07:02:01;11.30;;;3.90;;
13753;SDS011;6948;51.216;6.778;2023-08-08T07:04:27;11.83;;;4.70;;
13753;SDS011;6948;51.216;6.778;2023-08-08T07:06:56;13.43;;;4.47;;
13753;SDS011;6948;51.216;6.778;2023-08-08T07:09:22;14.73;;;4.17;;
13753;SDS011;6948;51.216;6.778;2023-08-08T07:11:48;10.87;;;3.73;;
13753;SDS011;6948;51.216;6.778;2023-08-08T07:14:14;12.93;;;4.60;;
13753;SDS011;6948;51.216;6.778;2023-08-08T07:16:40;9.43;;;3.87;;
13753;SDS011;6948;51.216;6.778;2023-08-08T07:19:06;8.73;;;4.07;;
13753;SDS011;6948;51.216;6.778;2023-08-08T07:21:32;9.70;;;3.80;;
13753;SDS011;6948;51.216;6.778;2023-08-08T07:23:58;9.47;;;3.87;;
13753;SDS011;6948;51.216;6.778;2023-08-08T07:26:24;8.13;;;4.00;;
13753;SDS011;6948;51.216;6.778;2023-08-08T07:28:50;12.53;;;4.30;;
13753;SDS011;6948;51.216;6.778;2023-08-08T07:31:16;11.30;;;4.17;;
13753;SDS011;6948;51.216;6.778;2023-08-08T07:33:43;7.60;;;3.40;;
13753;SDS011;6948;51.216;6.778;2023-08-08T07:36:09;9.87;;;4.40;;
13753;SDS011;6948;51.216;6.778;2023-08-08T07:38:38;9.20;;;3.80;;
13753;SDS011;6948;51.216;6.778;2023-08-08T07:41:04;13.03;;;4.47;;
13753;SDS011;6948;51.216;6.778;2023-08-08T07:43:30;8.93;;;3.73;;
13753;SDS011;6948;51.216;6.778;2023-08-08T07:45:56;8.47;;;3.50;;
13753;SDS011;6948;51.216;6.778;2023-08-08T07:48:22;12.47;;;3.67;;
13753;SDS011;6948;51.216;6.778;2023-08-08T07:50:48;10.03;;;3.80;;
13753;SDS011;6948;51.216;6.778;2023-08-08T07:53:14;9.30;;;3.67;;
13753;SDS011;6948;51.216;6.778;2023-08-08T07:55:40;12.87;;;5.10;;
13753;SDS011;6948;51.216;6.778;2023-08-08T07:58:06;10.23;;;3.63;;
13753;SDS011;6948;51.216;6.778;2023-08-08T08:00:32;13.60;;;3.43;;
13753;SDS011;6948;51.216;6.778;2023-08-08T08:02:58;7.23;;;3.40;;
13753;SDS011;6948;51.216;6.778;2023-08-08T08:05:24;10.33;;;3.47;;
13753;SDS011;6948;51.216;6.778;2023-08-08T08:07:50;7.73;;;3.70;;
13753;SDS011;6948;51.216;6.778;2023-08-08T08:10:16;10.93;;;3.57;;
13753;SDS011;6948;51.216;6.778;2023-08-08T08:12:42;7.73;;;3.20;;
13753;SDS011;6948;51.216;6.778;2023-08-08T08:15:09;10.63;;;3.50;;
13753;SDS011;6948;51.216;6.778;2023-08-08T08:17:35;9.67;;;3.40;;
13753;SDS011;6948;51.216;6.778;2023-08-08T08:20:10;13.73;;;3.57;;
13753;SDS011;6948;51.216;6.778;2023-08-08T08:22:37;12.70;;;3.80;;
13753;SDS011;6948;51.216;6.778;2023-08-08T08:25:04;11.00;;;3.80;;
13753;SDS011;6948;51.216;6.778;2023-08-08T08:27:30;8.13;;;3.30;;
13753;SDS011;6948;51.216;6.778;2023-08-08T08:29:56;7.87;;;3.70;;
13753;SDS011;6948;51.216;6.778;2023-08-08T08:32:22;9.93;;;4.17;;
13753;SDS011;6948;51.216;6.778;2023-08-08T08:34:49;12.57;;;4.13;;
13753;SDS011;6948;51.216;6.778;2023-08-08T08:37:15;8.17;;;3.83;;
13753;SDS011;6948;51.216;6.778;2023-08-08T08:39:41;8.73;;;3.70;;
13753;SDS011;6948;51.216;6.778;2023-08-08T08:42:07;12.57;;;3.50;;
13753;SDS011;6948;51.216;6.778;2023-08-08T08:44:34;8.30;;;4.13;;
13753;SDS011;6948;51.216;6.778;2023-08-08T08:47:01;12.20;;;3.70;;
13753;SDS011;6948;51.216;6.778;2023-08-08T08:49:31;9.20;;;3.47;;
13753;SDS011;6948;51.216;6.778;2023-08-08T08:51:58;9.70;;;3.50;;
13753;SDS011;6948;51.216;6.778;2023-08-08T08:54:25;9.47;;;3.60;;
13753;SDS011;6948;51.216;6.778;2023-08-08T08:56:53;9.77;;;3.30;;
13753;SDS011;6948;51.216;6.778;2023-08-08T08:59:20;8.60;;;3.80;;
13753;SDS011;6948;51.216;6.778;2023-08-08T09:01:46;13.73;;;3.87;;
13753;SDS011;6948;51.216;6.778;2023-08-08T09:04:12;9.73;;;3.40;;
13753;SDS011;6948;51.216;6.778;2023-08-08T09:06:40;8.43;;;3.90;;
13753;SDS011;6948;51.216;6.778;2023-08-08T09:09:07;8.43;;;3.60;;
13753;SDS011;6948;51.216;6.778;2023-08-08T09:11:33;6.87;;;3.77;;
13753;SDS011;6948;51.216;6.778;2023-08-08T09:14:00;13.43;;;4.10;;
13753;SDS011;6948;51.216;6.778;2023-08-08T09:16:27;10.27;;;3.47;;
13753;SDS011;6948;51.216;6.778;2023-08-08T09:18:54;9.43;;;3.30;;
13753;SDS011;6948;51.216;6.778;2023-08-08T09:21:20;7.97;;;3.27;;
13753;SDS011;6948;51.216;6.778;2023-08-08T09:23:46;14.10;;;3.70;;
13753;SDS011;6948;51.216;6.778;2023-08-08T09:26:13;11.07;;;3.37;;
13753;SDS011;6948;51.216;6.778;2023-08-08T09:28:41;8.33;;;3.30;;
13753;SDS011;6948;51.216;6.778;2023-08-08T09:31:07;8.63;;;3.30;;
13753;SDS011;6948;51.216;6.778;2023-08-08T09:33:33;10.13;;;3.50;;
13753;SDS011;6948;51.216;6.778;2023-08-08T09:35:59;8.67;;;3.27;;
13753;SDS011;6948;51.216;6.778;2023-08-08T09:38:25;8.70;;;3.27;;
13753;SDS011;6948;51.216;6.778;2023-08-08T09:40:51;10.30;;;3.17;;
13753;SDS011;6948;51.216;6.778;2023-08-08T09:43:17;8.23;;;3.10;;
13753;SDS011;6948;51.216;6.778;2023-08-08T09:45:43;9.20;;;3.10;;
13753;SDS011;6948;51.216;6.778;2023-08-08T09:48:12;10.00;;;3.33;;
13753;SDS011;6948;51.216;6.778;2023-08-08T09:50:38;6.13;;;3.10;;
13753;SDS011;6948;51.216;6.778;2023-08-08T09:53:06;10.50;;;3.40;;
13753;SDS011;6948;51.216;6.778;2023-08-08T09:55:32;8.40;;;3.30;;
13753;SDS011;6948;51.216;6.778;2023-08-08T09:57:59;7.67;;;3.03;;
13753;SDS011;6948;51.216;6.778;2023-08-08T10:00:26;8.77;;;3.40;;
13753;SDS011;6948;51.216;6.778;2023-08-08T10:02:53;7.77;;;2.80;;
13753;SDS011;6948;51.216;6.778;2023-08-08T10:05:19;8.73;;;3.10;;
13753;SDS011;6948;51.216;6.778;2023-08-08T10:07:46;7.97;;;3.20;;
13753;SDS011;6948;51.216;6.778;2023-08-08T10:10:12;7.70;;;2.57;;
13753;SDS011;6948;51.216;6.778;2023-08-08T10:12:39;7.13;;;2.80;;
13753;SDS011;6948;51.216;6.778;2023-08-08T10:15:06;8.93;;;3.10;;
13753;SDS011;6948;51.216;6.778;2023-08-08T10:17:35;6.47;;;2.63;;
13753;SDS011;6948;51.216;6.778;2023-08-08T10:20:01;7.73;;;2.93;;
13753;SDS011;6948;51.216;6.778;2023-08-08T10:22:34;9.73;;;3.00;;
13753;SDS011;6948;51.216;6.778;2023-08-08T10:25:03;10.70;;;3.10;;
13753;SDS011;6948;51.216;6.778;2023-08-08T10:27:33;9.53;;;3.70;;
13753;SDS011;6948;51.216;6.778;2023-08-08T10:30:02;12.37;;;4.60;;
13753;SDS011;6948;51.216;6.778;2023-08-08T10:32:28;10.80;;;3.90;;
13753;SDS011;6948;51.216;6.778;2023-08-08T10:34:55;10.33;;;4.27;;
13753;SDS011;6948;51.216;6.778;2023-08-08T10:37:26;9.17;;;4.10;;
13753;SDS011;6948;51.216;6.778;2023-08-08T10:39:52;10.07;;;3.90;;
13753;SDS011;6948;51.216;6.778;2023-08-08T10:42:19;8.03;;;4.13;;
13753;SDS011;6948;51.216;6.778;2023-08-08T10:44:54;8.57;;;3.20;;
13753;SDS011;6948;51.216;6.778;2023-08-08T10:47:21;11.90;;;4.07;;
13753;SDS011;6948;51.216;6.778;2023-08-08T10:49:56;8.20;;;3.97;;
13753;SDS011;6948;51.216;6.778;2023-08-08T10:52:22;8.20;;;3.60;;
13753;SDS011;6948;51.216;6.778;2023-08-08T10:54:51;6.27;;;3.60;;
13753;SDS011;6948;51.216;6.778;2023-08-08T10:57:19;8.97;;;3.93;;
13753;SDS011;6948;51.216;6.778;2023-08-08T10:59:46;11.73;;;3.87;;
13753;SDS011;6948;51.216;6.778;2023-08-08T11:02:12;10.33;;;4.20;;
13753;SDS011;6948;51.216;6.778;2023-08-08T11:04:39;8.97;;;3.97;;
13753;SDS011;6948;51.216;6.778;2023-08-08T11:07:06;10.07;;;4.33;;
13753;SDS011;6948;51.216;6.778;2023-08-08T11:09:32;8.57;;;3.90;;
13753;SDS011;6948;51.216;6.778;2023-08-08T11:11:58;9.30;;;4.20;;
13753;SDS011;6948;51.216;6.778;2023-08-08T11:14:24;9.03;;;4.13;;
13753;SDS011;6948;51.216;6.778;2023-08-08T11:16:51;8.27;;;4.13;;
13753;SDS011;6948;51.216;6.778;2023-08-08T11:19:17;7.43;;;3.97;;
13753;SDS011;6948;51.216;6.778;2023-08-08T11:21:45;12.90;;;4.03;;
13753;SDS011;6948;51.216;6.778;2023-08-08T11:24:11;12.07;;;3.57;;
13753;SDS011;6948;51.216;6.778;2023-08-08T11:26:39;7.93;;;3.40;;
13753;SDS011;6948;51.216;6.778;2023-08-08T11:29:05;9.10;;;3.63;;
13753;SDS011;6948;51.216;6.778;2023-08-08T11:31:32;8.07;;;3.37;;
13753;SDS011;6948;51.216;6.778;2023-08-08T11:33:59;10.43;;;3.23;;
13753;SDS011;6948;51.216;6.778;2023-08-08T11:36:25;9.40;;;3.70;;
13753;SDS011;6948;51.216;6.778;2023-08-08T11:38:53;8.27;;;3.27;;
13753;SDS011;6948;51.216;6.778;2023-08-08T11:41:21;9.57;;;3.10;;
13753;SDS011;6948;51.216;6.778;2023-08-08T11:43:48;6.97;;;2.67;;
13753;SDS011;6948;51.216;6.778;2023-08-08T11:46:14;7.60;;;3.20;;
13753;SDS011;6948;51.216;6.778;2023-08-08T11:48:41;6.40;;;3.00;;
13753;SDS011;6948;51.216;6.778;2023-08-08T11:51:08;7.20;;;3.33;;
13753;SDS011;6948;51.216;6.778;2023-08-08T11:53:35;6.70;;;3.60;;
13753;SDS011;6948;51.216;6.778;2023-08-08T11:56:01;7.30;;;3.20;;
13753;SDS011;6948;51.216;6.778;2023-08-08T11:58:29;6.60;;;3.60;;
13753;SDS011;6948;51.216;6.778;2023-08-08T12:00:56;9.00;;;3.10;;
13753;SDS011;6948;51.216;6.778;2023-08-08T12:03:25;6.47;;;3.30;;
13753;SDS011;6948;51.216;6.778;2023-08-08T12:05:51;7.53;;;3.00;;
13753;SDS011;6948;51.216;6.778;2023-08-08T12:08:18;9.30;;;3.10;;
13753;SDS011;6948;51.216;6.778;2023-08-08T12:10:49;6.10;;;2.90;;
13753;SDS011;6948;51.216;6.778;2023-08-08T12:13:20;7.10;;;2.93;;
13753;SDS011;6948;51.216;6.778;2023-08-08T12:15:46;6.53;;;2.90;;
13753;SDS011;6948;51.216;6.778;2023-08-08T12:18:15;4.80;;;2.70;;
13753;SDS011;6948;51.216;6.778;2023-08-08T12:20:42;4.83;;;2.73;;
13753;SDS011;6948;51.216;6.778;2023-08-08T12:23:08;6.43;;;2.87;;
13753;SDS011;6948;51.216;6.778;2023-08-08T12:25:34;6.60;;;2.70;;
13753;SDS011;6948;51.216;6.778;2023-08-08T12:28:01;4.83;;;2.70;;
13753;SDS011;6948;51.216;6.778;2023-08-08T12:30:27;5.63;;;2.63;;
13753;SDS011;6948;51.216;6.778;2023-08-08T12:32:53;4.90;;;2.40;;
13753;SDS011;6948;51.216;6.778;2023-08-08T12:35:19;9.63;;;2.90;;
13753;SDS011;6948;51.216;6.778;2023-08-08T12:37:46;5.50;;;2.70;;
13753;SDS011;6948;51.216;6.778;2023-08-08T12:40:12;7.80;;;2.60;;
13753;SDS011;6948;51.216;6.778;2023-08-08T12:42:38;4.87;;;2.97;;
13753;SDS011;6948;51.216;6.778;2023-08-08T12:45:05;7.67;;;2.87;;
13753;SDS011;6948;51.216;6.778;2023-08-08T12:47:31;5.20;;;2.70;;
13753;SDS011;6948;51.216;6.778;2023-08-08T12:50:01;5.47;;;3.13;;
13753;SDS011;6948;51.216;6.778;2023-08-08T12:52:28;8.20;;;3.10;;
13753;SDS011;6948;51.216;6.778;2023-08-08T12:54:54;6.90;;;2.93;;
13753;SDS011;6948;51.216;6.778;2023-08-08T12:57:20;7.77;;;3.10;;
13753;SDS011;6948;51.216;6.778;2023-08-08T12:59:46;6.33;;;2.70;;
13753;SDS011;6948;51.216;6.778;2023-08-08T13:02:13;7.50;;;2.90;;
13753;SDS011;6948;51.216;6.778;2023-08-08T13:04:39;8.37;;;2.90;;
13753;SDS011;6948;51.216;6.778;2023-08-08T13:07:05;5.47;;;2.70;;
13753;SDS011;6948;51.216;6.778;2023-08-08T13:09:32;5.90;;;2.80;;
13753;SDS011;6948;51.216;6.778;2023-08-08T13:11:58;9.13;;;3.13;;
13753;SDS011;6948;51.216;6.778;2023-08-08T13:14:24;7.67;;;3.37;;
13753;SDS011;6948;51.216;6.778;2023-08-08T13:16:50;4.90;;;3.13;;
13753;SDS011;6948;51.216;6.778;2023-08-08T13:19:16;6.70;;;3.40;;
13753;SDS011;6948;51.216;6.778;2023-08-08T13:21:46;7.57;;;3.10;;
13753;SDS011;6948;51.216;6.778;2023-08-08T13:24:12;5.10;;;2.77;;
13753;SDS011;6948;51.216;6.778;2023-08-08T13:26:50;4.53;;;2.60;;
13753;SDS011;6948;51.216;6.778;2023-08-08T13:29:17;5.53;;;3.17;;
13753;SDS011;6948;51.216;6.778;2023-08-08T13:31:43;6.87;;;2.87;;
13753;SDS011;6948;51.216;6.778;2023-08-08T13:34:09;6.37;;;2.80;;
13753;SDS011;6948;51.216;6.778;2023-08-08T13:36:35;8.53;;;3.00;;
13753;SDS011;6948;51.216;6.778;2023-08-08T13:39:02;7.53;;;3.00;;
13753;SDS011;6948;51.216;6.778;2023-08-08T13:41:29;5.23;;;2.73;;
13753;SDS011;6948;51.216;6.778;2023-08-08T13:43:55;7.83;;;2.80;;
13753;SDS011;6948;51.216;6.778;2023-08-08T13:46:22;5.47;;;2.87;;
13753;SDS011;6948;51.216;6.778;2023-08-08T13:48:48;5.53;;;2.83;;
13753;SDS011;6948;51.216;6.778;2023-08-08T13:51:14;5.50;;;2.60;;
13753;SDS011;6948;51.216;6.778;2023-08-08T13:53:40;7.70;;;4.50;;
13753;SDS011;6948;51.216;6.778;2023-08-08T13:56:06;7.67;;;3.13;;
13753;SDS011;6948;51.216;6.778;2023-08-08T13:58:33;7.67;;;3.00;;
13753;SDS011;6948;51.216;6.778;2023-08-08T14:00:59;5.20;;;2.43;;
13753;SDS011;6948;51.216;6.778;2023-08-08T14:03:25;5.37;;;2.30;;
13753;SDS011;6948;51.216;6.778;2023-08-08T14:05:52;11.27;;;3.07;;
13753;SDS011;6948;51.216;6.778;2023-08-08T14:08:18;5.77;;;2.53;;
13753;SDS011;6948;51.216;6.778;2023-08-08T14:10:45;6.43;;;2.47;;
13753;SDS011;6948;51.216;6.778;2023-08-08T14:13:11;6.83;;;2.57;;
13753;SDS011;6948;51.216;6.778;2023-08-08T14:15:37;7.37;;;2.60;;
13753;SDS011;6948;51.216;6.778;2023-08-08T14:18:03;5.97;;;2.50;;
13753;SDS011;6948;51.216;6.778;2023-08-08T14:20:30;5.00;;;2.60;;
13753;SDS011;6948;51.216;6.778;2023-08-08T14:22:56;7.00;;;2.60;;
13753;SDS011;6948;51.216;6.778;2023-08-08T14:25:22;7.70;;;2.33;;
13753;SDS011;6948;51.216;6.778;2023-08-08T14:27:49;6.67;;;3.17;;
13753;SDS011;6948;51.216;6.778;2023-08-08T14:30:16;6.10;;;2.50;;
13753;SDS011;6948;51.216;6.778;2023-08-08T14:32:42;7.80;;;2.30;;
13753;SDS011;6948;51.216;6.778;2023-08-08T14:35:08;3.73;;;2.50;;
13753;SDS011;6948;51.216;6.778;2023-08-08T14:37:35;9.63;;;2.77;;
13753;SDS011;6948;51.216;6.778;2023-08-08T14:40:01;6.37;;;2.50;;
13753;SDS011;6948;51.216;6.778;2023-08-08T14:42:28;6.07;;;2.70;;
13753;SDS011;6948;51.216;6.778;2023-08-08T14:44:54;6.40;;;2.63;;
13753;SDS011;6948;51.216;6.778;2023-08-08T14:47:20;6.27;;;2.33;;
13753;SDS011;6948;51.216;6.778;2023-08-08T14:49:46;6.23;;;2.40;;
13753;SDS011;6948;51.216;6.778;2023-08-08T14:52:12;5.47;;;2.30;;
13753;SDS011;6948;51.216;6.778;2023-08-08T14:54:38;4.60;;;2.50;;